createdAt,value
2023-02-27T00:00:31.377Z,12.55
2023-02-27T00:03:37.432Z,12.25
2023-02-27T00:06:46.797Z,12.06
2023-02-27T00:09:52.667Z,12.10
2023-02-27T00:12:59.360Z,12.58
2023-02-27T00:16:05.444Z,12.54
2023-02-27T00:19:12.773Z,11.91
2023-02-27T00:22:21.099Z,12.56
2023-02-27T00:25:27.857Z,12.35
2023-02-27T00:28:33.956Z,12.24
2023-02-27T00:31:40.834Z,12.96
2023-02-27T00:34:46.749Z,12.85
2023-02-27T00:37:56.819Z,13.16
2023-02-27T00:41:03.073Z,13.12
2023-02-27T00:44:09.794Z,13.71
2023-02-27T00:47:15.809Z,14.02
2023-02-27T00:50:22.829Z,13.71
2023-02-27T00:53:31.522Z,14.12
2023-02-27T00:56:38.240Z,14.30
2023-02-27T00:59:44.194Z,16.15
2023-02-27T01:02:53.389Z,16.59
2023-02-27T01:05:59.309Z,16.05
2023-02-27T01:09:09.222Z,15.11
2023-02-27T01:12:16.254Z,14.03
2023-02-27T01:15:24.388Z,13.57
2023-02-27T01:18:30.319Z,13.90
2023-02-27T01:21:37.217Z,13.21
2023-02-27T01:24:49.008Z,13.78
2023-02-27T01:27:55.764Z,12.98
2023-02-27T01:31:01.777Z,11.58
2023-02-27T01:34:08.607Z,9.78
2023-02-27T01:37:14.618Z,8.98
2023-02-27T01:40:25.744Z,8.14
2023-02-27T01:43:31.932Z,6.70
2023-02-27T01:46:38.967Z,5.46
2023-02-27T01:49:45.068Z,5.14
2023-02-27T01:52:59.314Z,5.05
2023-02-27T01:56:16.277Z,5.29
2023-02-27T01:59:25.119Z,5.61
2023-02-27T02:02:40.586Z,5.78
2023-02-27T02:05:50.115Z,5.89
2023-02-27T02:09:01.042Z,5.67
2023-02-27T02:12:14.936Z,5.79
2023-02-27T02:15:33.197Z,6.16
2023-02-27T02:18:58.046Z,6.60
2023-02-27T02:22:50.176Z,6.17
2023-02-27T02:26:33.841Z,7.19
2023-02-27T02:30:41.409Z,7.46
2023-02-27T02:34:34.073Z,8.74
2023-02-27T02:38:31.149Z,9.49
2023-02-27T02:42:01.181Z,9.30
2023-02-27T02:45:23.600Z,9.05
2023-02-27T02:48:40.362Z,9.29
2023-02-27T02:51:59.715Z,9.56
2023-02-27T02:55:22.857Z,10.16
2023-02-27T02:58:39.493Z,10.66
2023-02-27T03:01:55.467Z,10.49
2023-02-27T03:05:10.833Z,10.68
2023-02-27T03:08:27.704Z,11.47
2023-02-27T03:11:47.126Z,11.42
2023-02-27T03:15:06.503Z,12.39
2023-02-27T03:18:21.811Z,12.75
2023-02-27T03:21:39.401Z,12.22
2023-02-27T03:24:52.327Z,12.98
2023-02-27T03:28:11.185Z,13.17
2023-02-27T03:31:29.417Z,12.96
2023-02-27T03:34:42.010Z,12.67
2023-02-27T03:38:05.313Z,11.74
2023-02-27T03:41:29.478Z,12.00
2023-02-27T03:45:06.313Z,12.71
2023-02-27T03:48:13.738Z,11.85
2023-02-27T03:51:25.746Z,11.40
2023-02-27T03:54:42.789Z,11.09
2023-02-27T03:57:53.830Z,10.98
2023-02-27T04:01:03.574Z,10.50
2023-02-27T04:04:17.358Z,10.01
2023-02-27T04:08:29.874Z,9.96
2023-02-27T04:11:57.996Z,11.18
2023-02-27T04:15:26.273Z,11.58
2023-02-27T04:19:01.569Z,11.06
2023-02-27T04:22:27.100Z,13.31
2023-02-27T04:25:57.543Z,15.69
2023-02-27T04:29:19.775Z,12.24
2023-02-27T04:32:40.146Z,11.36
2023-02-27T04:35:57.681Z,11.95
2023-02-27T04:39:11.233Z,10.77
2023-02-27T04:42:26.257Z,10.54
2023-02-27T04:45:42.599Z,10.34
2023-02-27T04:49:00.857Z,11.69
2023-02-27T04:52:34.875Z,12.75
2023-02-27T04:55:51.755Z,12.60
2023-02-27T04:59:06.550Z,10.42
2023-02-27T05:02:25.085Z,10.29
2023-02-27T05:05:38.554Z,10.72
2023-02-27T05:09:02.010Z,11.06
2023-02-27T05:12:18.442Z,11.08
2023-02-27T05:15:36.536Z,13.05
2023-02-27T05:18:42.976Z,10.98
2023-02-27T05:22:05.941Z,11.06
2023-02-27T05:25:27.037Z,12.35
2023-02-27T05:28:48.863Z,11.72
2023-02-27T05:32:08.009Z,10.62
2023-02-27T05:35:29.275Z,11.13
2023-02-27T05:38:43.823Z,11.55
2023-02-27T05:42:01.657Z,11.29
2023-02-27T05:45:16.339Z,10.82
2023-02-27T05:48:32.912Z,10.38
2023-02-27T05:51:46.045Z,10.28
2023-02-27T05:55:08.683Z,10.24
2023-02-27T05:58:28.688Z,9.87
2023-02-27T06:01:36.508Z,10.32
2023-02-27T06:04:47.629Z,10.72
2023-02-27T06:07:54.623Z,11.02
2023-02-27T06:11:00.696Z,11.55
2023-02-27T06:14:09.957Z,12.39
2023-02-27T06:17:15.831Z,12.40
2023-02-27T06:20:22.812Z,11.52
2023-02-27T06:23:28.790Z,11.92
2023-02-27T06:26:35.497Z,13.04
2023-02-27T06:29:44.034Z,11.68
2023-02-27T06:32:54.491Z,9.78
2023-02-27T06:36:00.590Z,11.02
2023-02-27T06:39:11.831Z,11.03
2023-02-27T06:42:28.178Z,10.61
2023-02-27T06:45:38.177Z,10.65
2023-02-27T06:48:44.953Z,10.41
2023-02-27T06:51:52.206Z,10.48
2023-02-27T06:55:02.507Z,10.34
2023-02-27T06:58:09.165Z,10.56
2023-02-27T07:01:18.262Z,11.43
2023-02-27T07:04:25.471Z,11.75
2023-02-27T07:07:31.335Z,11.96
2023-02-27T07:10:44.268Z,18.38
2023-02-27T07:13:50.337Z,18.10
2023-02-27T07:17:03.437Z,15.38
2023-02-27T07:20:13.328Z,13.84
2023-02-27T07:23:20.077Z,13.15
2023-02-27T07:26:26.288Z,13.53
2023-02-27T07:29:33.236Z,13.73
2023-02-27T07:32:41.754Z,13.95
2023-02-27T07:35:48.953Z,13.24
2023-02-27T07:38:54.819Z,13.64
2023-02-27T07:42:01.508Z,14.20
2023-02-27T07:45:08.718Z,12.03
2023-02-27T07:48:18.108Z,13.21
2023-02-27T07:51:24.811Z,13.07
2023-02-27T07:54:33.238Z,11.39
2023-02-27T07:57:39.989Z,12.10
2023-02-27T08:00:46.894Z,13.33
2023-02-27T08:03:55.585Z,14.15
2023-02-27T08:07:08.644Z,13.43
2023-02-27T08:10:16.930Z,12.54
2023-02-27T08:13:42.404Z,10.86
2023-02-27T08:16:49.481Z,11.25
2023-02-27T08:20:05.020Z,10.91
2023-02-27T08:23:12.086Z,11.82
2023-02-27T08:26:19.068Z,12.00
2023-02-27T08:29:31.176Z,11.21
2023-02-27T08:32:39.039Z,11.31
2023-02-27T08:35:47.728Z,12.00
2023-02-27T08:38:55.464Z,11.46
2023-02-27T08:42:01.492Z,11.13
2023-02-27T08:45:10.105Z,10.43
2023-02-27T08:48:17.454Z,11.12
2023-02-27T08:51:27.117Z,13.35
2023-02-27T08:54:33.669Z,11.64
2023-02-27T08:57:40.405Z,11.75
2023-02-27T09:00:46.442Z,14.27
2023-02-27T09:03:53.403Z,37.79
2023-02-27T09:07:02.058Z,12.94
2023-02-27T09:10:10.611Z,11.29
2023-02-27T09:13:16.747Z,12.85
2023-02-27T09:16:25.845Z,12.23
2023-02-27T09:19:32.158Z,11.04
2023-02-27T09:22:42.919Z,11.71
2023-02-27T09:25:50.786Z,12.73
2023-02-27T09:28:57.472Z,15.10
2023-02-27T09:32:03.415Z,16.11
2023-02-27T09:35:12.416Z,16.81
2023-02-27T09:38:20.879Z,18.81
2023-02-27T09:41:51.270Z,22.00
2023-02-27T09:45:05.943Z,32.05
2023-02-27T09:48:30.173Z,16.23
2023-02-27T09:51:36.193Z,13.86
2023-02-27T09:54:45.648Z,13.10
2023-02-27T09:58:02.441Z,13.72
2023-02-27T10:01:19.433Z,14.59
2023-02-27T10:04:44.088Z,13.47
2023-02-27T10:08:06.609Z,11.60
2023-02-27T10:11:25.118Z,11.89
2023-02-27T10:14:45.706Z,12.24
2023-02-27T10:18:09.513Z,12.18
2023-02-27T10:21:33.807Z,13.72
2023-02-27T10:24:50.472Z,13.70
2023-02-27T10:28:16.093Z,13.60
2023-02-27T10:31:30.113Z,12.30
2023-02-27T10:34:40.519Z,12.89
2023-02-27T10:37:55.155Z,12.27
2023-02-27T10:41:05.364Z,11.75
2023-02-27T10:44:19.108Z,11.99
2023-02-27T10:47:29.908Z,13.07
2023-02-27T10:50:40.023Z,12.72
2023-02-27T10:53:46.699Z,12.72
2023-02-27T10:56:56.944Z,12.64
2023-02-27T11:00:25.502Z,11.04
2023-02-27T11:03:40.943Z,10.49
2023-02-27T11:06:55.788Z,9.30
2023-02-27T11:10:20.133Z,9.36
2023-02-27T11:13:29.233Z,9.54
2023-02-27T11:16:52.622Z,10.28
2023-02-27T11:20:01.539Z,8.82
2023-02-27T11:23:10.712Z,9.25
2023-02-27T11:26:25.381Z,6.54
2023-02-27T11:29:31.406Z,6.87
2023-02-27T11:32:51.519Z,6.31
2023-02-27T11:36:00.997Z,6.51
2023-02-27T11:39:08.044Z,6.18
2023-02-27T11:42:29.633Z,6.88
2023-02-27T11:46:04.685Z,6.63
2023-02-27T11:49:37.446Z,6.45
2023-02-27T11:52:56.109Z,5.58
2023-02-27T11:56:08.723Z,7.45
2023-02-27T11:59:38.285Z,6.61
2023-02-27T12:02:59.504Z,5.45
2023-02-27T12:06:22.274Z,5.07
2023-02-27T12:09:55.833Z,5.32
2023-02-27T12:13:14.607Z,5.98
2023-02-27T12:16:33.068Z,7.42
2023-02-27T12:19:53.416Z,6.88
2023-02-27T12:23:16.982Z,7.63
2023-02-27T12:26:32.060Z,7.14
2023-02-27T12:29:48.559Z,8.48
2023-02-27T12:33:07.037Z,7.72
2023-02-27T12:36:17.618Z,7.88
2023-02-27T12:39:29.063Z,8.32
2023-02-27T12:43:13.433Z,9.14
2023-02-27T12:46:38.720Z,8.11
2023-02-27T12:49:55.746Z,7.51
2023-02-27T12:53:35.284Z,7.69
2023-02-27T12:57:04.126Z,7.61
2023-02-27T13:00:21.495Z,7.81
2023-02-27T13:03:39.485Z,7.92
2023-02-27T13:06:58.220Z,8.51
2023-02-27T13:10:18.085Z,8.14
2023-02-27T13:13:41.201Z,10.24
2023-02-27T13:16:59.054Z,10.80
2023-02-27T13:20:32.887Z,9.44
2023-02-27T13:23:58.710Z,9.81
2023-02-27T13:27:22.786Z,9.60
2023-02-27T13:30:41.146Z,7.05
2023-02-27T13:34:09.522Z,8.23
2023-02-27T13:37:26.681Z,8.54
2023-02-27T13:40:42.568Z,9.24
2023-02-27T13:43:52.441Z,10.59
2023-02-27T13:47:43.757Z,10.54
2023-02-27T13:50:55.417Z,8.89
2023-02-27T13:54:26.298Z,9.50
2023-02-27T13:57:40.060Z,10.53
2023-02-27T14:00:58.919Z,9.34
2023-02-27T14:04:17.433Z,8.84
2023-02-27T14:07:29.943Z,9.15
2023-02-27T14:10:40.119Z,9.98
2023-02-27T14:14:05.586Z,10.14
2023-02-27T14:17:17.119Z,10.29
2023-02-27T14:20:54.672Z,8.99
2023-02-27T14:24:01.042Z,7.38
2023-02-27T14:27:20.331Z,7.11
2023-02-27T14:30:35.134Z,6.73
2023-02-27T14:33:49.223Z,7.86
2023-02-27T14:37:04.130Z,7.88
2023-02-27T14:40:29.173Z,6.47
2023-02-27T14:43:43.362Z,6.29
2023-02-27T14:46:50.445Z,7.86
2023-02-27T14:49:56.997Z,8.28
2023-02-27T14:53:08.762Z,7.66
2023-02-27T14:56:22.951Z,7.97
2023-02-27T14:59:34.252Z,9.70
2023-02-27T15:02:41.210Z,16.29
2023-02-27T15:05:50.313Z,12.71
2023-02-27T15:09:00.085Z,10.13
2023-02-27T15:12:08.550Z,10.77
2023-02-27T15:15:24.449Z,8.27
2023-02-27T15:18:31.368Z,8.85
2023-02-27T15:21:44.387Z,8.64
2023-02-27T15:24:55.120Z,10.00
2023-02-27T15:28:07.380Z,11.62
2023-02-27T15:31:27.318Z,10.58
2023-02-27T15:34:34.019Z,13.75
2023-02-27T15:37:43.854Z,12.90
2023-02-27T15:40:53.317Z,11.68
2023-02-27T15:44:01.068Z,11.63
2023-02-27T15:47:09.859Z,15.67
2023-02-27T15:50:31.575Z,16.15
2023-02-27T15:53:41.884Z,15.83
2023-02-27T15:56:53.029Z,12.84
2023-02-27T16:00:04.711Z,11.58
2023-02-27T16:03:30.966Z,10.32
2023-02-27T16:06:42.496Z,9.68
2023-02-27T16:09:55.957Z,11.20
2023-02-27T16:13:24.172Z,10.61
2023-02-27T16:16:36.217Z,11.63
2023-02-27T16:19:46.085Z,11.38
2023-02-27T16:23:06.981Z,12.22
2023-02-27T16:26:32.146Z,12.96
2023-02-27T16:29:48.971Z,14.26
2023-02-27T16:33:04.493Z,15.07
2023-02-27T16:36:25.209Z,13.21
2023-02-27T16:39:31.525Z,14.11
2023-02-27T16:42:38.571Z,14.81
2023-02-27T16:45:56.605Z,13.64
2023-02-27T16:49:18.875Z,14.50
2023-02-27T16:52:25.819Z,19.15
2023-02-27T16:55:34.551Z,18.69
2023-02-27T16:58:40.752Z,17.98
2023-02-27T17:01:50.451Z,19.87
2023-02-27T17:04:56.574Z,22.33
2023-02-27T17:08:03.686Z,23.38
2023-02-27T17:11:10.389Z,24.54
2023-02-27T17:14:17.285Z,27.54
2023-02-27T17:17:25.903Z,26.43
2023-02-27T17:20:33.037Z,21.84
2023-02-27T17:23:39.002Z,21.95
2023-02-27T17:26:46.467Z,22.96
2023-02-27T17:29:52.535Z,21.78
2023-02-27T17:33:04.178Z,20.51
2023-02-27T17:36:13.951Z,22.13
2023-02-27T17:39:20.895Z,19.72
2023-02-27T17:42:27.443Z,18.97
2023-02-27T17:45:34.512Z,16.99
2023-02-27T17:48:43.254Z,15.26
2023-02-27T17:51:50.605Z,15.77
2023-02-27T17:55:05.038Z,18.99
2023-02-27T17:58:12.868Z,20.43
2023-02-27T18:01:26.658Z,23.06
2023-02-27T18:04:37.319Z,21.92
2023-02-27T18:07:44.193Z,21.35
2023-02-27T18:10:51.867Z,17.84
2023-02-27T18:14:00.816Z,18.28
2023-02-27T18:17:13.345Z,20.40
2023-02-27T18:20:22.276Z,21.68
2023-02-27T18:23:29.460Z,20.16
2023-02-27T18:26:36.732Z,19.74
2023-02-27T18:29:43.963Z,19.88
2023-02-27T18:32:50.069Z,20.64
2023-02-27T18:35:59.756Z,21.99
2023-02-27T18:39:08.002Z,23.55
2023-02-27T18:42:17.022Z,27.20
2023-02-27T18:45:23.572Z,28.13
2023-02-27T18:48:36.127Z,28.54
2023-02-27T18:51:50.967Z,28.70
2023-02-27T18:54:58.017Z,29.47
2023-02-27T18:58:06.042Z,33.33
2023-02-27T19:01:23.982Z,33.48
2023-02-27T19:04:30.294Z,29.83
2023-02-27T19:07:39.970Z,25.43
2023-02-27T19:10:46.886Z,24.80
2023-02-27T19:13:55.216Z,21.87
2023-02-27T19:17:01.859Z,19.14
2023-02-27T19:20:14.563Z,19.20
2023-02-27T19:23:23.235Z,18.33
2023-02-27T19:26:30.946Z,18.26
2023-02-27T19:29:37.136Z,19.26
2023-02-27T19:32:44.229Z,19.57
2023-02-27T19:35:50.482Z,20.41
2023-02-27T19:39:00.907Z,19.85
2023-02-27T19:42:07.241Z,19.01
2023-02-27T19:45:15.029Z,19.81
2023-02-27T19:48:21.282Z,19.95
2023-02-27T19:51:28.747Z,19.97
2023-02-27T19:54:37.628Z,19.41
2023-02-27T19:57:44.648Z,19.77
2023-02-27T20:00:51.629Z,21.01
2023-02-27T20:03:59.577Z,20.05
2023-02-27T20:07:05.754Z,20.52
2023-02-27T20:10:16.350Z,20.75
2023-02-27T20:13:22.705Z,19.55
2023-02-27T20:16:34.598Z,18.87
2023-02-27T20:19:41.762Z,18.61
2023-02-27T20:22:49.470Z,18.45
2023-02-27T20:25:58.319Z,18.49
2023-02-27T20:29:09.775Z,17.86
2023-02-27T20:32:15.832Z,19.20
2023-02-27T20:35:22.802Z,19.76
2023-02-27T20:38:30.092Z,20.44
2023-02-27T20:41:40.554Z,21.98
2023-02-27T20:44:46.794Z,20.16
2023-02-27T20:47:53.910Z,19.96
2023-02-27T20:50:59.835Z,19.00
2023-02-27T20:54:11.102Z,15.50
2023-02-27T20:57:19.644Z,12.71
2023-02-27T21:00:28.036Z,12.59
2023-02-27T21:03:42.990Z,15.44
2023-02-27T21:06:49.823Z,17.40
2023-02-27T21:09:55.668Z,19.38
2023-02-27T21:13:05.049Z,19.86
2023-02-27T21:16:15.637Z,21.39
2023-02-27T21:19:22.336Z,21.52
2023-02-27T21:22:28.225Z,22.83
2023-02-27T21:25:34.917Z,25.74
2023-02-27T21:28:47.861Z,26.26
2023-02-27T21:31:55.655Z,27.06
2023-02-27T21:35:01.575Z,25.45
2023-02-27T21:38:08.354Z,26.50
2023-02-27T21:41:17.579Z,25.45
2023-02-27T21:44:29.875Z,24.04
2023-02-27T21:47:35.843Z,23.12
2023-02-27T21:50:43.064Z,23.22
2023-02-27T21:53:50.115Z,23.97
2023-02-27T21:56:58.233Z,24.07
2023-02-27T22:00:11.460Z,23.48
2023-02-27T22:03:18.257Z,23.25
2023-02-27T22:06:27.567Z,24.31
2023-02-27T22:09:34.664Z,23.20
2023-02-27T22:12:40.521Z,22.01
2023-02-27T22:15:50.068Z,20.71
2023-02-27T22:18:56.704Z,20.46
2023-02-27T22:22:03.509Z,21.36
2023-02-27T22:25:10.295Z,18.87
2023-02-27T22:28:16.910Z,16.59
2023-02-27T22:31:29.421Z,15.36
2023-02-27T22:34:36.767Z,15.36
2023-02-27T22:37:44.073Z,18.21
2023-02-27T22:40:50.730Z,17.05
2023-02-27T22:43:57.356Z,15.14
2023-02-27T22:47:06.722Z,14.89
2023-02-27T22:50:19.877Z,15.35
2023-02-27T22:53:26.850Z,16.33
2023-02-27T22:56:34.470Z,15.28
2023-02-27T22:59:41.469Z,15.24
2023-02-27T23:02:50.170Z,14.93
2023-02-27T23:05:56.831Z,15.06
2023-02-27T23:09:04.897Z,14.57
2023-02-27T23:12:11.811Z,13.93
2023-02-27T23:15:17.838Z,12.68
2023-02-27T23:18:27.726Z,11.86
2023-02-27T23:21:38.789Z,12.15
2023-02-27T23:24:45.437Z,12.43
2023-02-27T23:27:51.462Z,12.78
2023-02-27T23:30:59.744Z,12.45
2023-02-27T23:34:13.660Z,12.22
2023-02-27T23:37:20.265Z,12.16
2023-02-27T23:40:31.543Z,12.25
2023-02-27T23:43:38.508Z,12.10
2023-02-27T23:46:44.510Z,12.46
2023-02-27T23:49:53.795Z,11.88
2023-02-27T23:53:05.420Z,12.55
2023-02-27T23:56:18.587Z,11.70
2023-02-27T23:59:24.495Z,10.13
